createdAt,value
2023-08-27T00:00:28.371Z,66.19
2023-08-27T00:03:16.725Z,67.26
2023-08-27T00:05:44.971Z,67.81
2023-08-27T00:08:13.354Z,66.39
2023-08-27T00:10:41.352Z,67.74
2023-08-27T00:13:09.712Z,67.27
2023-08-27T00:15:37.602Z,66.67
2023-08-27T00:18:06.363Z,68.40
2023-08-27T00:20:34.720Z,69.32
2023-08-27T00:23:03.020Z,68.54
2023-08-27T00:25:31.039Z,67.82
2023-08-27T00:28:00.374Z,66.88
2023-08-27T00:30:28.472Z,66.66
2023-08-27T00:32:56.921Z,65.10
2023-08-27T00:35:25.497Z,64.42
2023-08-27T00:37:53.889Z,64.08
2023-08-27T00:40:21.958Z,65.65
2023-08-27T00:42:50.269Z,66.20
2023-08-27T00:45:18.320Z,65.46
2023-08-27T00:47:46.756Z,64.93
2023-08-27T00:50:15.837Z,64.94
2023-08-27T00:52:44.445Z,63.38
2023-08-27T00:55:12.790Z,63.28
2023-08-27T00:57:41.663Z,62.97
2023-08-27T01:00:11.000Z,62.58
2023-08-27T01:02:39.792Z,65.69
2023-08-27T01:05:08.076Z,67.69
2023-08-27T01:07:50.636Z,70.26
2023-08-27T01:10:28.196Z,68.74
2023-08-27T01:12:59.588Z,67.96
2023-08-27T01:15:29.124Z,66.88
2023-08-27T01:17:59.479Z,66.25
2023-08-27T01:20:29.198Z,65.46
2023-08-27T01:22:57.927Z,64.05
2023-08-27T01:25:29.224Z,65.10
2023-08-27T01:28:00.927Z,65.98
2023-08-27T01:30:32.622Z,65.10
2023-08-27T01:33:09.984Z,65.56
2023-08-27T01:35:38.340Z,65.08
2023-08-27T01:38:07.120Z,65.72
2023-08-27T01:40:36.876Z,66.33
2023-08-27T01:43:05.299Z,66.29
2023-08-27T01:45:33.133Z,68.01
2023-08-27T01:48:01.449Z,67.78
2023-08-27T01:50:29.338Z,70.02
2023-08-27T01:52:58.432Z,72.55
2023-08-27T01:55:26.570Z,72.73
2023-08-27T01:57:54.938Z,72.32
2023-08-27T02:00:23.733Z,72.86
2023-08-27T02:02:52.589Z,74.77
2023-08-27T02:05:20.697Z,76.68
2023-08-27T02:07:50.256Z,77.45
2023-08-27T02:10:18.311Z,78.83
2023-08-27T02:12:46.670Z,79.85
2023-08-27T02:15:14.645Z,80.15
2023-08-27T02:17:43.015Z,80.13
2023-08-27T02:20:11.951Z,82.60
2023-08-27T02:22:40.332Z,81.04
2023-08-27T02:25:09.474Z,79.70
2023-08-27T02:27:37.739Z,76.59
2023-08-27T02:30:05.973Z,79.63
2023-08-27T02:32:34.208Z,78.03
2023-08-27T02:35:02.128Z,74.66
2023-08-27T02:37:30.803Z,73.30
2023-08-27T02:39:58.783Z,71.22
2023-08-27T02:42:27.151Z,71.13
2023-08-27T02:44:55.020Z,69.53
2023-08-27T02:47:23.336Z,69.13
2023-08-27T02:49:51.287Z,69.97
2023-08-27T02:52:19.490Z,68.71
2023-08-27T02:54:47.622Z,68.04
2023-08-27T02:57:16.049Z,68.74
2023-08-27T02:59:43.980Z,68.11
2023-08-27T03:02:12.339Z,67.91
2023-08-27T03:04:40.285Z,67.32
2023-08-27T03:07:09.122Z,67.18
2023-08-27T03:09:37.038Z,67.33
2023-08-27T03:12:05.486Z,67.40
2023-08-27T03:14:33.433Z,68.15
2023-08-27T03:17:01.808Z,68.20
2023-08-27T03:19:29.746Z,66.95
2023-08-27T03:21:59.267Z,67.47
2023-08-27T03:24:27.206Z,67.08
2023-08-27T03:26:55.441Z,67.81
2023-08-27T03:29:23.399Z,67.80
2023-08-27T03:31:53.076Z,69.50
2023-08-27T03:34:20.896Z,70.40
2023-08-27T03:36:49.223Z,72.47
2023-08-27T03:39:17.103Z,70.57
2023-08-27T03:41:46.601Z,68.83
2023-08-27T03:44:14.343Z,69.98
2023-08-27T03:46:42.571Z,70.76
2023-08-27T03:49:11.727Z,70.46
2023-08-27T03:51:39.794Z,68.90
2023-08-27T03:54:08.370Z,68.95
2023-08-27T03:56:36.484Z,70.43
2023-08-27T03:59:05.389Z,71.38
2023-08-27T04:01:33.728Z,70.32
2023-08-27T04:04:01.617Z,68.81
2023-08-27T04:06:30.354Z,69.62
2023-08-27T04:08:58.090Z,69.09
2023-08-27T04:11:27.910Z,69.16
2023-08-27T04:13:55.692Z,69.09
2023-08-27T04:16:23.911Z,69.84
2023-08-27T04:18:52.540Z,68.54
2023-08-27T04:21:20.681Z,68.55
2023-08-27T04:23:48.413Z,73.33
2023-08-27T04:26:16.512Z,74.66
2023-08-27T04:28:44.268Z,75.85
2023-08-27T04:31:12.718Z,74.55
2023-08-27T04:33:40.515Z,74.26
2023-08-27T04:36:08.600Z,73.48
2023-08-27T04:38:36.391Z,73.10
2023-08-27T04:41:04.524Z,72.46
2023-08-27T04:43:32.348Z,73.09
2023-08-27T04:46:00.585Z,72.05
2023-08-27T04:48:28.487Z,70.23
2023-08-27T04:50:58.257Z,70.99
2023-08-27T04:53:28.374Z,70.64
2023-08-27T04:55:56.930Z,70.97
2023-08-27T04:58:25.124Z,69.72
2023-08-27T05:00:58.267Z,68.14
2023-08-27T05:03:27.114Z,68.83
2023-08-27T05:05:55.471Z,68.12
2023-08-27T05:08:23.299Z,69.09
2023-08-27T05:10:51.474Z,69.75
2023-08-27T05:13:19.718Z,69.01
2023-08-27T05:15:47.871Z,70.00
2023-08-27T05:18:15.631Z,70.98
2023-08-27T05:20:43.839Z,71.04
2023-08-27T05:23:12.043Z,71.72
2023-08-27T05:25:40.109Z,72.27
2023-08-27T05:28:07.793Z,73.57
2023-08-27T05:30:35.869Z,73.49
2023-08-27T05:33:05.697Z,74.42
2023-08-27T05:35:35.473Z,74.00
2023-08-27T05:38:04.136Z,73.91
2023-08-27T05:40:32.254Z,72.97
2023-08-27T05:43:00.000Z,73.87
2023-08-27T05:45:28.096Z,74.33
2023-08-27T05:47:55.873Z,73.77
2023-08-27T05:50:24.389Z,71.55
2023-08-27T05:52:52.197Z,71.73
2023-08-27T05:55:20.275Z,71.10
2023-08-27T05:57:48.160Z,69.70
2023-08-27T06:00:16.406Z,71.61
2023-08-27T06:02:44.812Z,69.59
2023-08-27T06:05:13.288Z,68.22
2023-08-27T06:07:41.176Z,67.04
2023-08-27T06:10:09.847Z,67.65
2023-08-27T06:12:37.737Z,68.05
2023-08-27T06:15:06.098Z,65.99
2023-08-27T06:17:33.919Z,64.90
2023-08-27T06:20:02.162Z,64.56
2023-08-27T06:22:29.951Z,64.31
2023-08-27T06:24:59.037Z,63.86
2023-08-27T06:27:26.942Z,63.24
2023-08-27T06:29:55.325Z,63.21
2023-08-27T06:32:23.127Z,62.86
2023-08-27T06:34:51.384Z,65.91
2023-08-27T06:37:19.282Z,67.66
2023-08-27T06:39:47.480Z,68.72
2023-08-27T06:42:15.199Z,70.31
2023-08-27T06:44:43.319Z,70.95
2023-08-27T06:47:11.414Z,71.71
2023-08-27T06:49:39.719Z,71.29
2023-08-27T06:52:08.482Z,71.74
2023-08-27T06:54:37.021Z,70.54
2023-08-27T06:57:05.029Z,70.12
2023-08-27T06:59:33.247Z,69.32
2023-08-27T07:02:01.353Z,67.26
2023-08-27T07:04:30.125Z,67.38
2023-08-27T07:06:57.924Z,64.92
2023-08-27T07:09:29.462Z,65.00
2023-08-27T07:11:57.211Z,64.71
2023-08-27T07:14:25.321Z,64.44
2023-08-27T07:16:53.282Z,63.92
2023-08-27T07:19:21.730Z,64.54
2023-08-27T07:21:49.671Z,63.44
2023-08-27T07:24:18.276Z,64.05
2023-08-27T07:26:46.251Z,63.01
2023-08-27T07:29:14.511Z,62.33
2023-08-27T07:31:42.372Z,60.80
2023-08-27T07:34:10.633Z,58.23
2023-08-27T07:36:38.430Z,55.63
2023-08-27T07:39:07.170Z,55.71
2023-08-27T07:41:35.409Z,53.31
2023-08-27T07:44:03.832Z,52.60
2023-08-27T07:46:31.929Z,52.36
2023-08-27T07:49:00.084Z,49.01
2023-08-27T07:51:27.870Z,47.66
2023-08-27T07:53:56.077Z,47.21
2023-08-27T07:56:25.190Z,47.29
2023-08-27T07:58:53.535Z,48.62
2023-08-27T08:01:21.336Z,47.57
2023-08-27T08:03:50.145Z,46.76
2023-08-27T08:06:17.986Z,46.42
2023-08-27T08:08:46.145Z,45.97
2023-08-27T08:11:13.896Z,45.77
2023-08-27T08:13:42.935Z,45.34
2023-08-27T08:16:10.773Z,44.99
2023-08-27T08:18:39.041Z,43.61
2023-08-27T08:21:06.852Z,44.41
2023-08-27T08:23:35.031Z,44.53
2023-08-27T08:26:03.348Z,44.99
2023-08-27T08:28:31.534Z,44.56
2023-08-27T08:30:59.457Z,43.52
2023-08-27T08:33:27.575Z,44.05
2023-08-27T08:35:55.498Z,43.87
2023-08-27T08:38:23.731Z,44.29
2023-08-27T08:40:55.133Z,44.48
2023-08-27T08:43:29.351Z,44.85
2023-08-27T08:46:05.141Z,44.74
2023-08-27T08:48:41.932Z,44.84
2023-08-27T08:51:11.353Z,44.32
2023-08-27T08:53:48.702Z,43.95
2023-08-27T08:56:20.794Z,43.96
2023-08-27T08:58:53.593Z,43.67
2023-08-27T09:01:21.777Z,43.49
2023-08-27T09:03:50.446Z,42.78
2023-08-27T09:06:19.317Z,42.67
2023-08-27T09:08:47.760Z,42.64
2023-08-27T09:11:16.557Z,42.71
2023-08-27T09:13:44.492Z,43.49
2023-08-27T09:16:13.347Z,43.54
2023-08-27T09:18:41.293Z,43.79
2023-08-27T09:21:09.467Z,42.27
2023-08-27T09:23:39.555Z,42.63
2023-08-27T09:26:08.879Z,42.71
2023-08-27T09:28:36.836Z,42.71
2023-08-27T09:31:05.819Z,43.33
2023-08-27T09:33:41.600Z,41.68
2023-08-27T09:36:10.904Z,40.20
2023-08-27T09:38:40.922Z,41.70
2023-08-27T09:41:16.311Z,41.25
2023-08-27T09:43:48.581Z,39.76
2023-08-27T09:46:17.157Z,38.77
2023-08-27T09:48:45.095Z,39.53
2023-08-27T09:51:13.291Z,39.92
2023-08-27T09:53:41.560Z,40.76
2023-08-27T09:56:09.661Z,40.27
2023-08-27T09:58:40.484Z,38.96
2023-08-27T10:01:09.120Z,38.03
2023-08-27T10:03:36.928Z,36.53
2023-08-27T10:06:05.452Z,35.31
2023-08-27T10:08:33.232Z,35.55
2023-08-27T10:11:10.503Z,33.80
2023-08-27T10:13:38.663Z,34.52
2023-08-27T10:16:07.265Z,35.67
2023-08-27T10:18:35.133Z,35.07
2023-08-27T10:21:03.863Z,36.71
2023-08-27T10:23:33.054Z,36.08
2023-08-27T10:26:02.589Z,35.73
2023-08-27T10:28:31.152Z,37.73
2023-08-27T10:30:59.746Z,37.26
2023-08-27T10:33:28.504Z,37.29
2023-08-27T10:35:58.493Z,36.67
2023-08-27T10:38:27.345Z,37.24
2023-08-27T10:40:55.506Z,36.60
2023-08-27T10:43:24.034Z,35.45
2023-08-27T10:45:53.530Z,35.30
2023-08-27T10:48:23.676Z,37.79
2023-08-27T10:50:56.259Z,39.35
2023-08-27T10:53:24.427Z,39.78
2023-08-27T10:55:53.132Z,40.24
2023-08-27T10:58:24.806Z,39.67
2023-08-27T11:01:05.800Z,39.83
2023-08-27T11:04:10.462Z,39.90
2023-08-27T11:06:41.840Z,40.31
2023-08-27T11:09:17.534Z,39.89
2023-08-27T11:11:52.676Z,40.26
2023-08-27T11:14:21.949Z,39.76
2023-08-27T11:16:55.425Z,39.69
2023-08-27T11:19:30.193Z,39.91
2023-08-27T11:22:06.303Z,39.52
2023-08-27T11:24:34.379Z,39.79
2023-08-27T11:27:05.912Z,39.46
2023-08-27T11:29:35.119Z,39.46
2023-08-27T11:32:05.070Z,39.39
2023-08-27T11:34:36.637Z,39.92
2023-08-27T11:37:05.843Z,40.47
2023-08-27T11:39:37.616Z,40.07
2023-08-27T11:42:12.921Z,40.75
2023-08-27T11:44:51.110Z,40.96
2023-08-27T11:47:20.327Z,41.06
2023-08-27T11:49:48.079Z,40.87
2023-08-27T11:52:16.780Z,42.05
2023-08-27T11:54:44.864Z,41.36
2023-08-27T11:57:14.024Z,41.45
2023-08-27T11:59:43.631Z,41.36
2023-08-27T12:02:13.422Z,41.23
2023-08-27T12:04:41.664Z,40.96
2023-08-27T12:07:10.314Z,41.36
2023-08-27T12:09:38.484Z,40.80
2023-08-27T12:12:09.008Z,40.91
2023-08-27T12:14:37.789Z,40.94
2023-08-27T12:17:09.492Z,41.70
2023-08-27T12:19:38.681Z,41.69
2023-08-27T12:22:07.483Z,41.43
2023-08-27T12:24:45.054Z,41.19
2023-08-27T12:27:17.261Z,41.28
2023-08-27T12:29:45.911Z,41.21
2023-08-27T12:32:18.700Z,41.34
2023-08-27T12:34:47.480Z,41.24
2023-08-27T12:37:19.815Z,40.87
2023-08-27T12:39:48.294Z,41.50
2023-08-27T12:42:17.209Z,41.49
2023-08-27T12:44:47.373Z,42.13
2023-08-27T12:47:17.255Z,42.11
2023-08-27T12:49:45.043Z,42.47
2023-08-27T12:52:13.287Z,42.84
2023-08-27T12:54:42.255Z,43.26
2023-08-27T12:57:11.472Z,43.99
2023-08-27T12:59:39.253Z,44.20
2023-08-27T13:02:08.727Z,44.60
2023-08-27T13:04:36.709Z,45.52
2023-08-27T13:07:05.291Z,47.03
2023-08-27T13:09:33.079Z,47.35
2023-08-27T13:12:01.325Z,48.28
2023-08-27T13:14:29.106Z,49.17
2023-08-27T13:16:57.239Z,50.72
2023-08-27T13:19:25.014Z,51.35
2023-08-27T13:21:53.128Z,52.58
2023-08-27T13:24:22.390Z,54.05
2023-08-27T13:26:50.581Z,55.24
2023-08-27T13:29:18.494Z,57.04
2023-08-27T13:31:47.425Z,57.16
2023-08-27T13:34:15.306Z,58.88
2023-08-27T13:36:43.360Z,57.16
2023-08-27T13:39:11.143Z,57.03
2023-08-27T13:41:39.221Z,57.01
2023-08-27T13:44:07.016Z,56.24
2023-08-27T13:46:35.144Z,55.87
2023-08-27T13:49:02.982Z,55.23
2023-08-27T13:51:31.180Z,53.63
2023-08-27T13:53:58.909Z,53.42
2023-08-27T13:56:27.024Z,54.47
2023-08-27T13:58:54.790Z,53.04
2023-08-27T14:01:25.088Z,54.44
2023-08-27T14:03:53.329Z,54.63
2023-08-27T14:06:21.455Z,52.99
2023-08-27T14:08:49.426Z,52.90
2023-08-27T14:11:17.534Z,51.56
2023-08-27T14:13:47.808Z,51.72
2023-08-27T14:16:16.152Z,51.58
2023-08-27T14:18:43.927Z,50.47
2023-08-27T14:21:12.341Z,49.91
2023-08-27T14:23:40.167Z,51.00
2023-08-27T14:26:08.304Z,49.64
2023-08-27T14:28:36.214Z,47.96
2023-08-27T14:31:04.341Z,48.77
2023-08-27T14:33:32.111Z,50.22
2023-08-27T14:36:00.171Z,49.96
2023-08-27T14:38:27.922Z,49.56
2023-08-27T14:40:55.992Z,48.97
2023-08-27T14:43:23.808Z,49.37
2023-08-27T14:45:51.945Z,50.05
2023-08-27T14:48:19.652Z,49.61
2023-08-27T14:50:47.734Z,47.99
2023-08-27T14:53:15.433Z,49.07
2023-08-27T14:55:43.496Z,50.08
2023-08-27T14:58:11.224Z,49.97
2023-08-27T15:00:39.801Z,50.52
2023-08-27T15:03:07.596Z,50.85
2023-08-27T15:05:35.742Z,50.53
2023-08-27T15:08:03.916Z,50.83
2023-08-27T15:10:33.448Z,51.06
2023-08-27T15:13:01.186Z,51.11
2023-08-27T15:15:29.636Z,51.87
2023-08-27T15:17:57.523Z,51.42
2023-08-27T15:20:25.953Z,50.41
2023-08-27T15:22:53.716Z,50.01
2023-08-27T15:25:21.874Z,50.60
2023-08-27T15:27:49.648Z,49.66
2023-08-27T15:30:17.802Z,49.56
2023-08-27T15:32:45.529Z,48.75
2023-08-27T15:35:17.453Z,49.13
2023-08-27T15:37:48.040Z,48.17
2023-08-27T15:40:16.493Z,48.70
2023-08-27T15:42:44.338Z,49.60
2023-08-27T15:45:12.267Z,48.79
2023-08-27T15:47:39.972Z,48.81
2023-08-27T15:50:08.634Z,48.93
2023-08-27T15:52:36.351Z,49.82
2023-08-27T15:55:05.505Z,50.04
2023-08-27T15:57:33.296Z,50.50
2023-08-27T16:00:01.280Z,50.29
2023-08-27T16:02:39.216Z,50.69
2023-08-27T16:05:07.748Z,50.71
2023-08-27T16:07:35.352Z,51.25
2023-08-27T16:10:03.765Z,52.02
2023-08-27T16:12:31.442Z,51.55
2023-08-27T16:14:59.671Z,51.71
2023-08-27T16:17:27.328Z,51.66
2023-08-27T16:19:55.322Z,51.69
2023-08-27T16:22:22.991Z,51.25
2023-08-27T16:24:50.931Z,50.62
2023-08-27T16:27:18.588Z,50.89
2023-08-27T16:29:46.571Z,50.33
2023-08-27T16:32:14.190Z,51.70
2023-08-27T16:34:44.650Z,51.64
2023-08-27T16:37:12.350Z,52.50
2023-08-27T16:39:40.300Z,52.01
2023-08-27T16:42:08.433Z,51.81
2023-08-27T16:44:36.779Z,52.11
2023-08-27T16:47:04.580Z,52.48
2023-08-27T16:49:32.498Z,52.17
2023-08-27T16:52:00.197Z,53.04
2023-08-27T16:54:28.417Z,52.68
2023-08-27T16:56:56.458Z,52.83
2023-08-27T16:59:24.343Z,53.23
2023-08-27T17:01:52.065Z,52.99
2023-08-27T17:04:21.739Z,53.41
2023-08-27T17:06:49.320Z,54.16
2023-08-27T17:09:17.190Z,53.88
2023-08-27T17:11:44.862Z,53.74
2023-08-27T17:14:12.879Z,53.95
2023-08-27T17:16:43.627Z,54.53
2023-08-27T17:19:11.680Z,54.71
2023-08-27T17:21:39.850Z,55.00
2023-08-27T17:24:08.171Z,55.25
2023-08-27T17:26:36.106Z,54.50
2023-08-27T17:29:04.676Z,55.01
2023-08-27T17:31:32.372Z,54.15
2023-08-27T17:34:00.230Z,54.25
2023-08-27T17:36:27.882Z,54.52
2023-08-27T17:38:55.860Z,53.83
2023-08-27T17:41:29.413Z,54.04
2023-08-27T17:43:57.381Z,54.27
2023-08-27T17:46:25.873Z,55.23
2023-08-27T17:48:53.840Z,53.49
2023-08-27T17:51:21.412Z,53.83
2023-08-27T17:53:49.306Z,54.04
2023-08-27T17:56:16.869Z,53.67
2023-08-27T17:58:44.828Z,53.55
2023-08-27T18:01:12.463Z,53.46
2023-08-27T18:03:40.427Z,53.68
2023-08-27T18:06:08.137Z,54.39
2023-08-27T18:08:36.143Z,53.78
2023-08-27T18:11:04.191Z,53.76
2023-08-27T18:13:32.181Z,54.10
2023-08-27T18:15:59.912Z,54.14
2023-08-27T18:18:29.036Z,55.67
2023-08-27T18:20:57.844Z,56.03
2023-08-27T18:23:25.898Z,56.15
2023-08-27T18:25:53.473Z,56.13
2023-08-27T18:28:21.377Z,55.31
2023-08-27T18:30:48.922Z,54.91
2023-08-27T18:33:16.829Z,54.90
2023-08-27T18:35:44.392Z,54.52
2023-08-27T18:38:12.345Z,54.21
2023-08-27T18:40:39.953Z,53.77
2023-08-27T18:43:07.891Z,54.43
2023-08-27T18:45:35.521Z,55.00
2023-08-27T18:48:04.502Z,54.63
2023-08-27T18:50:32.905Z,54.35
2023-08-27T18:53:00.831Z,54.18
2023-08-27T18:55:28.388Z,53.20
2023-08-27T18:57:56.319Z,53.65
2023-08-27T19:00:23.991Z,52.67
2023-08-27T19:02:52.739Z,52.91
2023-08-27T19:05:20.434Z,51.45
2023-08-27T19:07:48.400Z,49.03
2023-08-27T19:10:17.262Z,48.85
2023-08-27T19:12:45.173Z,47.16
2023-08-27T19:15:12.831Z,46.70
2023-08-27T19:17:40.817Z,46.34
2023-08-27T19:20:08.610Z,46.16
2023-08-27T19:22:36.964Z,45.65
2023-08-27T19:25:05.218Z,45.37
2023-08-27T19:27:33.272Z,45.41
2023-08-27T19:30:01.041Z,44.69
2023-08-27T19:32:29.218Z,45.24
2023-08-27T19:34:57.496Z,44.69
2023-08-27T19:37:25.591Z,45.13
2023-08-27T19:39:53.191Z,45.38
2023-08-27T19:42:21.140Z,45.59
2023-08-27T19:44:51.414Z,45.75
2023-08-27T19:47:20.531Z,46.44
2023-08-27T19:49:48.200Z,46.85
2023-08-27T19:52:16.170Z,48.54
2023-08-27T19:54:43.819Z,50.66
2023-08-27T19:57:11.913Z,51.21
2023-08-27T19:59:39.633Z,51.16
2023-08-27T20:02:09.780Z,52.15
2023-08-27T20:04:37.543Z,52.30
2023-08-27T20:07:07.185Z,52.70
2023-08-27T20:09:37.729Z,52.97
2023-08-27T20:12:06.211Z,52.61
2023-08-27T20:14:33.925Z,52.37
2023-08-27T20:17:02.025Z,52.44
2023-08-27T20:19:29.849Z,52.36
2023-08-27T20:21:57.910Z,51.77
2023-08-27T20:24:25.638Z,52.06
2023-08-27T20:26:54.119Z,51.85
2023-08-27T20:29:21.809Z,52.08
2023-08-27T20:31:49.861Z,52.18
2023-08-27T20:34:17.630Z,52.21
2023-08-27T20:36:45.774Z,52.35
2023-08-27T20:39:13.660Z,52.18
2023-08-27T20:41:43.661Z,52.46
2023-08-27T20:44:11.370Z,51.72
2023-08-27T20:46:39.479Z,52.87
2023-08-27T20:49:07.188Z,52.87
2023-08-27T20:51:35.240Z,52.93
2023-08-27T20:54:10.605Z,52.90
2023-08-27T20:56:39.500Z,53.42
2023-08-27T20:59:07.519Z,53.60
2023-08-27T21:01:36.806Z,53.60
2023-08-27T21:04:04.800Z,53.02
2023-08-27T21:06:32.980Z,53.38
2023-08-27T21:09:00.674Z,53.24
2023-08-27T21:11:28.887Z,54.15
2023-08-27T21:13:57.252Z,54.04
2023-08-27T21:16:25.445Z,54.39
2023-08-27T21:18:53.118Z,54.41
2023-08-27T21:21:21.195Z,54.53
2023-08-27T21:23:48.856Z,54.51
2023-08-27T21:26:16.990Z,54.32
2023-08-27T21:28:44.760Z,54.45
2023-08-27T21:31:35.694Z,54.66
2023-08-27T21:34:00.754Z,55.20
2023-08-27T21:36:28.771Z,54.64
2023-08-27T21:38:56.669Z,54.87
2023-08-27T21:41:24.931Z,54.88
2023-08-27T21:43:52.550Z,55.51
2023-08-27T21:46:20.641Z,55.47
2023-08-27T21:48:48.398Z,55.22
2023-08-27T21:51:16.354Z,55.46
2023-08-27T21:53:44.025Z,55.83
2023-08-27T21:56:12.167Z,55.51
2023-08-27T21:58:39.858Z,55.22
2023-08-27T22:01:11.900Z,54.72
2023-08-27T22:03:39.898Z,54.37
2023-08-27T22:06:08.096Z,53.89
2023-08-27T22:08:35.756Z,53.93
2023-08-27T22:11:03.736Z,53.77
2023-08-27T22:13:31.872Z,53.88
2023-08-27T22:15:59.941Z,52.84
2023-08-27T22:18:32.018Z,52.02
2023-08-27T22:21:01.153Z,51.83
2023-08-27T22:23:29.082Z,51.73
2023-08-27T22:25:57.093Z,51.15
2023-08-27T22:28:25.102Z,51.04
2023-08-27T22:30:53.145Z,50.97
2023-08-27T22:33:20.874Z,50.87
2023-08-27T22:35:49.106Z,50.21
2023-08-27T22:38:16.854Z,48.86
2023-08-27T22:40:45.044Z,48.68
2023-08-27T22:43:12.855Z,47.15
2023-08-27T22:45:41.097Z,46.08
2023-08-27T22:48:08.896Z,45.40
2023-08-27T22:50:37.172Z,44.65
2023-08-27T22:53:05.572Z,43.92
2023-08-27T22:55:33.557Z,43.13
2023-08-27T22:58:01.182Z,43.20
2023-08-27T23:00:29.243Z,42.34
2023-08-27T23:02:56.973Z,42.59
2023-08-27T23:05:25.195Z,42.52
2023-08-27T23:07:52.905Z,41.79
2023-08-27T23:10:20.913Z,41.55
2023-08-27T23:12:48.581Z,41.42
2023-08-27T23:15:16.612Z,41.70
2023-08-27T23:17:46.600Z,41.47
2023-08-27T23:20:14.634Z,41.69
2023-08-27T23:22:42.291Z,41.21
2023-08-27T23:25:10.581Z,41.45
2023-08-27T23:27:38.459Z,41.61
2023-08-27T23:30:06.884Z,41.86
2023-08-27T23:32:34.626Z,41.40
2023-08-27T23:35:04.978Z,41.41
2023-08-27T23:37:33.026Z,41.12
2023-08-27T23:40:01.043Z,40.63
2023-08-27T23:42:28.774Z,40.92
2023-08-27T23:45:01.132Z,40.63
2023-08-27T23:47:29.451Z,41.74
2023-08-27T23:49:57.433Z,41.41
2023-08-27T23:52:25.174Z,41.59
2023-08-27T23:54:53.357Z,41.66
2023-08-27T23:57:20.981Z,42.43
2023-08-27T23:59:49.760Z,41.98
